KBFF/BFF METAR and TAF weather

Enter ICAO airport designator
Station Type Date Time Source
KBFF METAR 2019/07/15 19:53 UTC NOAA

KBFF 151953Z AUTO 11008KT 10SM CLR 30/ A3004 RMK AO2 SLP121 T0300 $


Station Type Date Time Source
KBFF Decoded METAR 2019/07/15 19:53 UTC NOAA

SCOTTSBLUFF HEILIG FIELD, NE, United States (KBFF) 41-52N 103-36W 1203M
Jul 15, 2019 - 03:53 PM EDT / 2019.07.15 1953 UTC
Wind: from the ESE (110 degrees) at 9 MPH (8 KT):0
Visibility: 10 mile(s):0
Sky conditions: clear
Temperature: 86 F (30 C)
Pressure (altimeter): 30.04 in. Hg (1017 hPa)
ob: KBFF 151953Z AUTO 11008KT 10SM CLR 30/ A3004 RMK AO2 SLP121 T0300
cycle: 20

Station Type Date Time Source
KBFF TAF 2019/07/15 18:42 UTC NOAA

TAF KBFF 151741Z 1518/1618 09010KT P6SM FEW100
FM152100 09012G18KT P6SM VCTS BKN100CB
TEMPO 1521/1601 VRB30G40KT 3SM -TSRA BKN050CB
FM160100 VRB05KT P6SM SCT100

Example: see airport list